Terminal Aerodrome Forecast
Issued by NWS

Home | Current Version | Previous Version | Text Only | Print | Product List | Glossary On
Versions: 1 2 3 4 5 6 7 8 9 10 11 12 13
000
FTAK31 PAFA 210602 RRA
TAFAGA
TAF
PAGA 210602Z 2106/2206 04010G17KT P6SM SKC
     FM211800 08016G23KT P6SM VCSH BKN050 BKN100
     FM212200 06009KT 6SM -SHSN SCT025 OVC050
     FM220400 05006KT P6SM VCSH SCT025 OVC050=

USA.gov is the U.S. government's official web portal to all federal, state and local government web resources and services.